Flight Number: EUR1469 Duration: 1:15
Departure: Arhangelsk (ULAA) at 18:15 Distance: 410 Nm
Arrival: St.Petersburg Pulkovo (ULLI) at 19:30 Equipment: B737

Weather Information
Arhangel'Sk, Russia (ULAA) 64-30N 040-44E 8M May 23, 2018 - 08:00 PM EDT / 2018.05.24 0000 UTC
Wind: from the E (100 degrees) at 4 MPH (4 KT):0
Visibility: greater than 7 mile(s):0
Sky conditions: mostly clear Temperature: 33 F (1 C) Dew Point: 33 F (1 C) Relative Humidity: 100% Pressure (altimeter): 30.27 in. Hg (1025 hPa)
ob: ULAA 240000Z 10002MPS 9999 FEW033 01/01 Q1025 R08/CLRD70 NOSIG RMK QFE767/1023 cycle: 0
Sunrise: 23:35 Sunset: 18:52 (UTC)

St. Peterburg, Russia (ULLI) 59-58N 030-18E 6M May 23, 2018 - 08:00 PM EDT / 2018.05.24 0000 UTC
Wind: from the W (280 degrees) at 7 MPH (6 KT):0
Visibility: greater than 7 mile(s):0 Temperature: 51 F (11 C) Dew Point: 46 F (8 C) Relative Humidity: 81% Pressure (altimeter): 30.21 in. Hg (1023 hPa)
ob: ULLI 240000Z 28003MPS CAVOK 11/08 Q1023 R88/090060 NOSIG cycle: 0
Sunrise: 01:08 Sunset: 18:42 (UTC)

TAF:2018/05/23 21:21 TAF TAF ULLI 231956Z 2321/2421 27003MPS 9999 SCT030 TEMPO 2321/2404 VRB01MPS 3100 -SHRA BR BKN011 BKN020CB BECMG 2404/2406 04003G08MPS TEMPO 2409/2418 30003G08MPS

Previous Pireps for this route
Date Aircraft Flight time Fuel used Landing rate On time
2013-06-26MD-8101.2810457-178Charter
2015-06-26B73701.287945-177Yes
2016-01-18B73701.208000-174Yes
2016-08-30B73701.1313062-86Yes
(pireps marked green are flown by you)

Route map